Macks Creek, Missouri
Current Conditions -  °F | °C
As of 8:35 AM on Friday 28 Nov 2014 (Local Time) from KH21 Reporting Station
Clear Clear  
Wind Chill: -1°   Ceiling: Unl
Heat Index:   Visibility: 10mi
Dew Point: -2°   Wind: 15mph
Humidity: 65%   Direction: 160°SSE
Pressure: 30.1"   Gusts: NA
Location:  37.97°N, 92.97°W
Report Text: KH21 281435Z AUTO 16013KT 10SM CLR 04/M02 A3010 RMK AO2
Loading
Personal Weather Stations






























Interactive Weather Map New forecast layout! Learn more

10-Day Weather Forecast

Advertisements
Track Severe Weather on mobile